Thunder radar more information blitzortung!


Radar de pluja more information rain snow radar


Visita la nostra xarxa de llocs de meteo:

Template documentation
and downloads

And another site



No particular awareness of the weather is required.    There are no Weather-warnings

Pagina Historial Weather Underground text

Diari Resum January 23, 2016 Unitats:  Mètric    Imperial   Tant
« Previous Dia
SegĂźent Dia »
Diari Setmana Mensual Anual Personalitzada
  Maxima: Minima: Media:
Temperatura: 19.0 °C 9.4 °C 14.2 °C
Punt de rosada: 9.2 °C 4.4 °C 7.1 °C
Humitat: 72 % 50 % 63 %
Wind Speed: 14.8 km/h 0.0 km/h 5.4 km/h
RĂ fegues de vent: 14.8 km/h - -
Vent:- - SW
Pression baro: 1034.8 hPa 1032.1 hPa -
Precipitacions: 0.0 mm    
Historical Graphs
 
 
Dades de taula per January 23, 2016
Temps Temperatura Punt de rosada Pression baro Vent Wind Speed RĂ fegues de vent Humitat Rainfall Rate (Hourly)
13:51 15.3 °C 7.6 °C 1032.7 hPa NNE 3.7 km/h 3.7 km/h 60 % 0.0 mm
13:56 15.4 °C 7.9 °C 1032.7 hPa ESE 6.4 km/h 6.4 km/h 61 % 0.0 mm
14:01 15.5 °C 8.0 °C 1032.7 hPa ESE 3.9 km/h 3.9 km/h 61 % 0.0 mm
14:06 15.8 °C 8.6 °C 1033.7 hPa ESE 6.1 km/h 6.1 km/h 62 % 0.0 mm
14:11 15.9 °C 8.4 °C 1033.7 hPa SSE 7.4 km/h 7.4 km/h 61 % 0.0 mm
14:16 16.1 °C 8.6 °C 1033.7 hPa South 5.6 km/h 5.6 km/h 61 % 0.0 mm
14:21 16.2 °C 8.7 °C 1033.7 hPa WSW 3.9 km/h 3.9 km/h 61 % 0.0 mm
14:26 16.2 °C 8.4 °C 1033.7 hPa SW 7.4 km/h 7.4 km/h 60 % 0.0 mm
14:31 16.3 °C 8.5 °C 1033.7 hPa WSW 7.4 km/h 7.4 km/h 60 % 0.0 mm
14:36 16.3 °C 8.0 °C 1033.7 hPa SW 5.6 km/h 5.6 km/h 58 % 0.0 mm
14:41 16.5 °C 8.4 °C 1033.7 hPa SW 4.7 km/h 4.7 km/h 59 % 0.0 mm
14:46 16.8 °C 8.5 °C 1033.7 hPa South 7.4 km/h 7.4 km/h 58 % 0.0 mm
14:51 17.1 °C 8.2 °C 1033.7 hPa South 5.6 km/h 5.6 km/h 56 % 0.0 mm
14:56 17.4 °C 8.5 °C 1033.7 hPa ENE 1.9 km/h 1.9 km/h 56 % 0.0 mm
15:01 17.6 °C 8.4 °C 1033.7 hPa ENE 5.6 km/h 5.6 km/h 55 % 0.0 mm
15:06 17.6 °C 8.4 °C 1032.7 hPa South 5.6 km/h 5.6 km/h 55 % 0.0 mm
15:11 17.7 °C 8.6 °C 1032.7 hPa South 5.6 km/h 5.6 km/h 55 % 0.0 mm
15:16 18.1 °C 8.7 °C 1032.7 hPa West 5.6 km/h 5.6 km/h 54 % 0.0 mm
15:21 18.4 °C 8.7 °C 1032.7 hPa SSW 3.7 km/h 3.7 km/h 53 % 0.0 mm
15:26 18.7 °C 9.2 °C 1032.7 hPa SSE 3.9 km/h 3.9 km/h 54 % 0.0 mm
15:31 18.6 °C 8.8 °C 1032.7 hPa SW 3.7 km/h 3.9 km/h 53 % 0.0 mm
15:36 18.7 °C 8.6 °C 1032.7 hPa SW 5.6 km/h 5.6 km/h 52 % 0.0 mm
15:41 18.9 °C 8.8 °C 1032.7 hPa West 7.4 km/h 7.4 km/h 52 % 0.0 mm
15:46 18.8 °C 8.7 °C 1032.7 hPa SW 5.8 km/h 5.8 km/h 52 % 0.0 mm
15:51 18.8 °C 8.4 °C 1032.1 hPa SW 4.2 km/h 4.2 km/h 51 % 0.0 mm
15:56 18.7 °C 8.3 °C 1032.1 hPa SW 7.4 km/h 7.4 km/h 51 % 0.0 mm
16:01 18.8 °C 8.4 °C 1032.1 hPa WSW 9.3 km/h 9.3 km/h 51 % 0.0 mm
16:06 18.8 °C 8.4 °C 1032.1 hPa WSW 5.6 km/h 5.6 km/h 51 % 0.0 mm
16:11 19.0 °C 8.3 °C 1032.1 hPa SW 3.7 km/h 3.7 km/h 50 % 0.0 mm
16:16 18.9 °C 8.6 °C 1032.1 hPa SW 9.3 km/h 9.3 km/h 51 % 0.0 mm
16:21 18.8 °C 8.4 °C 1032.1 hPa WSW 7.4 km/h 7.4 km/h 51 % 0.0 mm
16:26 18.7 °C 8.3 °C 1032.1 hPa SW 10.3 km/h 10.3 km/h 51 % 0.0 mm
16:32 18.6 °C 8.3 °C 1032.1 hPa SW 9.3 km/h 9.3 km/h 51 % 0.0 mm
16:37 18.5 °C 8.2 °C 1032.1 hPa WSW 9.5 km/h 9.5 km/h 51 % 0.0 mm
16:42 18.2 °C 7.9 °C 1032.1 hPa SW 11.1 km/h 11.1 km/h 51 % 0.0 mm
16:47 18.1 °C 7.8 °C 1032.1 hPa SW 12.6 km/h 12.6 km/h 51 % 0.0 mm
16:52 18.0 °C 8.0 °C 1032.1 hPa WSW 11.9 km/h 11.9 km/h 52 % 0.0 mm
16:57 17.7 °C 8.0 °C 1032.1 hPa SW 13.0 km/h 13.0 km/h 53 % 0.0 mm
17:07 17.3 °C 7.9 °C 1032.1 hPa WSW 13.0 km/h 13.0 km/h 54 % 0.0 mm
17:12 17.0 °C 7.6 °C 1032.1 hPa WSW 14.8 km/h 14.8 km/h 54 % 0.0 mm
17:17 16.8 °C 7.9 °C 1032.1 hPa WSW 13.0 km/h 13.0 km/h 56 % 0.0 mm
17:22 16.6 °C 8.1 °C 1032.1 hPa SSW 11.1 km/h 11.1 km/h 57 % 0.0 mm
17:27 16.4 °C 8.1 °C 1032.1 hPa SW 13.0 km/h 13.0 km/h 58 % 0.0 mm
17:37 15.9 °C 7.9 °C 1032.1 hPa WSW 9.3 km/h 9.3 km/h 59 % 0.0 mm
17:42 15.6 °C 7.8 °C 1032.1 hPa WSW 5.6 km/h 5.6 km/h 60 % 0.0 mm
17:47 15.4 °C 7.7 °C 1032.1 hPa SW 4.2 km/h 4.2 km/h 60 % 0.0 mm
17:52 15.2 °C 7.7 °C 1032.7 hPa SW 5.6 km/h 5.6 km/h 61 % 0.0 mm
17:57 15.0 °C 7.6 °C 1032.7 hPa West 7.4 km/h 7.4 km/h 61 % 0.0 mm
18:02 14.9 °C 7.7 °C 1032.7 hPa WSW 9.3 km/h 9.3 km/h 62 % 0.0 mm
18:07 14.7 °C 7.5 °C 1032.7 hPa WSW 3.9 km/h 3.9 km/h 62 % 0.0 mm
18:12 14.5 °C 7.3 °C 1032.7 hPa NW 5.0 km/h 5.0 km/h 62 % 0.0 mm
18:17 14.4 °C 7.4 °C 1032.7 hPa WSW 5.8 km/h 5.8 km/h 63 % 0.0 mm
18:22 14.3 °C 7.3 °C 1032.7 hPa SW 7.4 km/h 7.4 km/h 63 % 0.0 mm
18:27 14.2 °C 7.5 °C 1032.7 hPa SW 3.7 km/h 3.9 km/h 64 % 0.0 mm
18:32 14.0 °C 7.3 °C 1032.7 hPa SW 5.8 km/h 5.8 km/h 64 % 0.0 mm
18:37 13.9 °C 7.4 °C 1032.7 hPa WSW 5.6 km/h 5.6 km/h 65 % 0.0 mm
18:42 13.8 °C 7.3 °C 1032.7 hPa SW 5.6 km/h 5.6 km/h 65 % 0.0 mm
18:47 13.7 °C 7.2 °C 1032.7 hPa WSW 7.4 km/h 7.4 km/h 65 % 0.0 mm
18:57 13.3 °C 7.1 °C 1032.7 hPa WSW 4.2 km/h 5.0 km/h 66 % 0.0 mm
19:02 13.2 °C 7.2 °C 1032.7 hPa SW 6.1 km/h 6.1 km/h 67 % 0.0 mm
19:07 13.0 °C 7.0 °C 1033.7 hPa SW 5.6 km/h 5.6 km/h 67 % 0.0 mm
19:12 12.9 °C 7.1 °C 1033.7 hPa SW 5.6 km/h 5.6 km/h 68 % 0.0 mm
19:22 12.7 °C 6.9 °C 1033.7 hPa SW 3.9 km/h 3.9 km/h 68 % 0.0 mm
19:27 12.6 °C 6.8 °C 1033.7 hPa SW 3.9 km/h 3.9 km/h 68 % 0.0 mm
19:32 12.5 °C 6.8 °C 1033.7 hPa WSW 3.7 km/h 3.7 km/h 68 % 0.0 mm
19:37 12.4 °C 6.9 °C 1033.7 hPa SW 3.7 km/h 3.7 km/h 69 % 0.0 mm
19:42 12.2 °C 6.7 °C 1033.7 hPa WSW 3.7 km/h 3.7 km/h 69 % 0.0 mm
19:47 12.1 °C 6.6 °C 1033.7 hPa SW 3.2 km/h 3.2 km/h 69 % 0.0 mm
19:52 12.1 °C 6.6 °C 1033.7 hPa SW 3.7 km/h 3.7 km/h 69 % 0.0 mm
19:57 12.1 °C 6.6 °C 1033.7 hPa WSW 5.6 km/h 5.6 km/h 69 % 0.0 mm
20:02 12.0 °C 6.7 °C 1033.7 hPa WSW 5.6 km/h 5.6 km/h 70 % 0.0 mm
20:07 11.9 °C 6.6 °C 1033.7 hPa WSW 3.7 km/h 3.7 km/h 70 % 0.0 mm
20:12 11.8 °C 6.5 °C 1033.7 hPa WSW 2.6 km/h 2.6 km/h 70 % 0.0 mm
20:17 11.7 °C 6.4 °C 1033.7 hPa WSW 3.7 km/h 3.7 km/h 70 % 0.0 mm
20:22 11.6 °C 6.3 °C 1033.7 hPa WSW 3.7 km/h 3.7 km/h 70 % 0.0 mm
20:27 11.5 °C 6.2 °C 1033.7 hPa WSW 3.7 km/h 3.9 km/h 70 % 0.0 mm
20:32 11.5 °C 6.2 °C 1033.7 hPa Calm     70 % 0.0 mm
20:37 11.3 °C 6.0 °C 1033.7 hPa Calm     70 % 0.0 mm
20:42 11.3 °C 6.0 °C 1033.7 hPa Calm     70 % 0.0 mm
20:47 11.2 °C 5.7 °C 1033.7 hPa SW 5.6 km/h 5.6 km/h 69 % 0.0 mm
20:52 11.0 °C 5.7 °C 1032.7 hPa SW 5.6 km/h 5.6 km/h 70 % 0.0 mm
20:57 10.9 °C 5.8 °C 1032.7 hPa WSW 4.2 km/h 4.2 km/h 71 % 0.0 mm
21:02 10.9 °C 5.8 °C 1032.7 hPa WSW 5.6 km/h 5.6 km/h 71 % 0.0 mm
21:07 10.8 °C 5.9 °C 1032.7 hPa SW 5.6 km/h 5.6 km/h 72 % 0.0 mm
21:12 10.7 °C 5.8 °C 1032.7 hPa WSW 3.9 km/h 3.9 km/h 72 % 0.0 mm
21:17 10.8 °C 5.9 °C 1032.7 hPa West 3.7 km/h 3.7 km/h 72 % 0.0 mm
21:22 10.9 °C 6.1 °C 1032.7 hPa West 3.7 km/h 3.7 km/h 72 % 0.0 mm
21:27 10.8 °C 5.9 °C 1032.7 hPa West 3.7 km/h   72 % 0.0 mm
21:32 10.8 °C 5.9 °C 1032.7 hPa WSW 2.3 km/h 3.5 km/h 72 % 0.0 mm
21:37 10.7 °C 5.7 °C 1032.1 hPa SW 4.2 km/h 4.2 km/h 71 % 0.0 mm
21:47 10.5 °C 5.4 °C 1032.1 hPa SW 3.9 km/h 3.9 km/h 71 % 0.0 mm
21:52 10.4 °C 5.4 °C 1033.7 hPa SW 3.9 km/h   71 % 0.0 mm
21:57 10.4 °C 5.6 °C 1033.7 hPa NNE 1.9 km/h 2.3 km/h 72 % 0.0 mm
22:02 10.4 °C 5.6 °C 1033.7 hPa SW 3.7 km/h 3.7 km/h 72 % 0.0 mm
22:07 10.5 °C 5.7 °C 1034.8 hPa SW 1.9 km/h   72 % 0.0 mm
22:12 10.5 °C 5.7 °C 1034.8 hPa NW 1.9 km/h   72 % 0.0 mm
22:17 10.4 °C 5.6 °C 1034.8 hPa WNW 2.3 km/h   72 % 0.0 mm
22:22 10.1 °C 5.1 °C 1033.7 hPa Calm     71 % 0.0 mm
22:27 10.0 °C 5.0 °C 1033.7 hPa WNW 1.9 km/h 1.9 km/h 71 % 0.0 mm
22:32 9.9 °C 4.9 °C 1033.7 hPa WSW 3.7 km/h   71 % 0.0 mm
22:37 9.9 °C 4.9 °C 1034.8 hPa SW 3.7 km/h 3.7 km/h 71 % 0.0 mm
22:42 9.7 °C 4.7 °C 1034.8 hPa SW 1.9 km/h   71 % 0.0 mm
22:47 9.7 °C 4.7 °C 1034.8 hPa WSW 1.9 km/h   71 % 0.0 mm
22:57 9.8 °C 4.8 °C 1034.8 hPa Calm     71 % 0.0 mm
23:02 9.8 °C 4.8 °C 1034.8 hPa WSW 1.9 km/h   71 % 0.0 mm
23:07 9.7 °C 4.7 °C 1033.7 hPa WSW 2.6 km/h 2.6 km/h 71 % 0.0 mm
23:12 9.5 °C 4.5 °C 1033.7 hPa WSW 3.7 km/h 3.7 km/h 71 % 0.0 mm
23:17 9.4 °C 4.4 °C 1033.7 hPa WSW 3.7 km/h 3.7 km/h 71 % 0.0 mm
Meteo Sesrovires
Elogis d' Weather Underground - 3 mb

Guio original per  Jim McMurry - jmcmurry@mwt.net Adaptat per a la plantilla per  Wim van der Kuil - Leuven-Template.eu

Trobareu la nostra informacio del temps tambe a:

Weather Underground

AWEKAS